createdAt,value
2018-11-26T00:00:35.580Z,54.82
2018-11-26T00:03:07.940Z,54.78
2018-11-26T00:05:37.172Z,53.89
2018-11-26T00:08:09.333Z,54.18
2018-11-26T00:10:49.409Z,53.97
2018-11-26T00:13:18.196Z,54.78
2018-11-26T00:15:46.942Z,53.95
2018-11-26T00:18:15.708Z,54.57
2018-11-26T00:20:44.505Z,54.74
2018-11-26T00:23:13.487Z,54.80
2018-11-26T00:25:42.609Z,54.68
2018-11-26T00:28:11.376Z,53.67
2018-11-26T00:30:40.485Z,54.23
2018-11-26T00:33:09.611Z,53.63
2018-11-26T00:35:38.435Z,53.83
2018-11-26T00:38:07.229Z,54.00
2018-11-26T00:40:36.356Z,54.02
2018-11-26T00:43:05.707Z,54.32
2018-11-26T00:45:34.543Z,54.67
2018-11-26T00:48:03.321Z,54.29
2018-11-26T00:50:32.452Z,54.36
2018-11-26T00:53:01.274Z,53.57
2018-11-26T00:55:30.252Z,54.46
2018-11-26T00:57:59.017Z,53.35
2018-11-26T01:00:27.821Z,53.90
2018-11-26T01:02:56.601Z,54.26
2018-11-26T01:05:34.621Z,53.68
2018-11-26T01:08:03.452Z,53.36
2018-11-26T01:10:32.660Z,54.06
2018-11-26T01:13:01.805Z,54.08
2018-11-26T01:15:30.758Z,53.72
2018-11-26T01:17:59.711Z,53.36
2018-11-26T01:20:29.247Z,53.73
2018-11-26T01:22:58.037Z,54.04
2018-11-26T01:25:26.837Z,53.98
2018-11-26T01:27:55.798Z,53.33
2018-11-26T01:30:25.173Z,54.31
2018-11-26T01:32:53.936Z,53.42
2018-11-26T01:35:22.737Z,53.36
2018-11-26T01:37:51.551Z,54.28
2018-11-26T01:40:27.697Z,53.97
2018-11-26T01:42:56.828Z,53.49
2018-11-26T01:45:25.892Z,53.65
2018-11-26T01:47:54.662Z,53.88
2018-11-26T01:50:23.490Z,53.97
2018-11-26T01:52:52.785Z,53.37
2018-11-26T01:55:21.773Z,53.95
2018-11-26T01:57:51.073Z,53.82
2018-11-26T02:00:24.085Z,53.91
2018-11-26T02:02:52.935Z,53.35
2018-11-26T02:05:22.112Z,53.10
2018-11-26T02:07:51.076Z,53.38
2018-11-26T02:10:20.482Z,54.07
2018-11-26T02:12:49.475Z,53.98
2018-11-26T02:15:31.113Z,53.09
2018-11-26T02:17:59.905Z,52.99
2018-11-26T02:20:29.037Z,53.99
2018-11-26T02:22:57.969Z,53.46
2018-11-26T02:25:27.123Z,53.43
2018-11-26T02:27:55.926Z,53.67
2018-11-26T02:30:25.078Z,53.09
2018-11-26T02:32:54.311Z,53.64
2018-11-26T02:35:23.445Z,53.33
2018-11-26T02:37:53.050Z,54.18
2018-11-26T02:40:28.918Z,52.61
2018-11-26T02:42:58.347Z,53.83
2018-11-26T02:45:28.068Z,53.76
2018-11-26T02:47:57.026Z,54.27
2018-11-26T02:50:26.590Z,53.35
2018-11-26T02:52:55.566Z,53.52
2018-11-26T02:55:24.370Z,53.96
2018-11-26T02:57:53.290Z,54.42
2018-11-26T03:00:22.277Z,54.15
2018-11-26T03:02:51.267Z,54.45
2018-11-26T03:05:28.768Z,53.30
2018-11-26T03:07:57.766Z,53.39
2018-11-26T03:10:27.145Z,53.93
2018-11-26T03:12:55.933Z,53.59
2018-11-26T03:15:24.805Z,53.16
2018-11-26T03:17:53.580Z,53.78
2018-11-26T03:20:22.608Z,53.25
2018-11-26T03:22:51.609Z,53.75
2018-11-26T03:25:20.408Z,53.77
2018-11-26T03:27:49.259Z,53.92
2018-11-26T03:30:18.874Z,54.41
2018-11-26T03:32:48.193Z,54.28
2018-11-26T03:35:17.168Z,54.16
2018-11-26T03:37:45.953Z,54.25
2018-11-26T03:40:14.980Z,54.70
2018-11-26T03:42:44.119Z,53.35
2018-11-26T03:45:14.498Z,54.50
2018-11-26T03:47:43.315Z,54.61
2018-11-26T03:50:13.589Z,53.83
2018-11-26T03:52:43.234Z,53.49
2018-11-26T03:55:12.876Z,53.67
2018-11-26T03:57:41.723Z,53.53
2018-11-26T04:00:15.812Z,53.93
2018-11-26T04:02:44.597Z,53.87
2018-11-26T04:05:13.470Z,54.48
2018-11-26T04:07:42.366Z,54.45
2018-11-26T04:10:12.088Z,54.46
2018-11-26T04:12:40.900Z,54.44
2018-11-26T04:15:13.941Z,54.72
2018-11-26T04:17:42.961Z,54.55
2018-11-26T04:20:12.096Z,54.11
2018-11-26T04:22:41.058Z,53.63
2018-11-26T04:25:10.504Z,54.84
2018-11-26T04:27:39.308Z,53.74
2018-11-26T04:30:10.012Z,54.51
2018-11-26T04:32:39.507Z,53.76
2018-11-26T04:35:08.524Z,54.56
2018-11-26T04:37:37.365Z,54.67
2018-11-26T04:40:08.221Z,53.64
2018-11-26T04:42:37.013Z,54.36
2018-11-26T04:45:07.356Z,53.63
2018-11-26T04:47:36.173Z,54.45
2018-11-26T04:50:07.509Z,54.04
2018-11-26T04:52:36.315Z,53.64
2018-11-26T04:55:05.318Z,54.28
2018-11-26T04:57:34.363Z,54.20
2018-11-26T05:00:03.241Z,53.61
2018-11-26T05:02:32.030Z,53.47
2018-11-26T05:05:01.022Z,53.93
2018-11-26T05:07:29.845Z,53.94
2018-11-26T05:09:58.633Z,54.00
2018-11-26T05:12:27.472Z,53.81
2018-11-26T05:14:56.259Z,53.94
2018-11-26T05:17:25.067Z,54.64
2018-11-26T05:19:54.367Z,54.09
2018-11-26T05:22:23.166Z,54.42
2018-11-26T05:24:52.135Z,53.55
2018-11-26T05:27:21.125Z,53.43
2018-11-26T05:29:52.856Z,53.94
2018-11-26T05:32:21.825Z,54.29
2018-11-26T05:34:50.633Z,53.88
2018-11-26T05:37:19.964Z,53.42
2018-11-26T05:39:48.772Z,53.43
2018-11-26T05:42:17.745Z,53.76
2018-11-26T05:44:46.540Z,54.45
2018-11-26T05:47:15.342Z,54.16
2018-11-26T05:49:44.136Z,53.44
2018-11-26T05:52:13.300Z,53.81
2018-11-26T05:54:42.118Z,53.28
2018-11-26T05:57:11.068Z,53.45
2018-11-26T05:59:40.036Z,53.54
2018-11-26T06:02:08.848Z,53.39
2018-11-26T06:04:37.964Z,54.34
2018-11-26T06:07:07.064Z,53.45
2018-11-26T06:09:36.055Z,54.04
2018-11-26T06:12:05.123Z,54.18
2018-11-26T06:14:33.942Z,54.19
2018-11-26T06:17:02.754Z,54.12
2018-11-26T06:19:31.751Z,54.04
2018-11-26T06:22:00.537Z,53.29
2018-11-26T06:24:29.331Z,53.37
2018-11-26T06:26:58.325Z,54.20
2018-11-26T06:29:27.282Z,53.11
2018-11-26T06:31:56.584Z,53.85
2018-11-26T06:34:25.542Z,53.81
2018-11-26T06:36:54.479Z,53.81
2018-11-26T06:39:23.639Z,53.43
2018-11-26T06:41:52.470Z,53.45
2018-11-26T06:44:21.273Z,53.41
2018-11-26T06:46:50.083Z,53.38
2018-11-26T06:52:10.890Z,53.27
2018-11-26T06:54:39.930Z,54.06
2018-11-26T06:57:08.807Z,53.37
2018-11-26T06:59:37.671Z,54.11
2018-11-26T07:02:06.556Z,53.48
2018-11-26T07:04:35.425Z,53.20
2018-11-26T07:07:04.339Z,53.83
2018-11-26T07:09:33.202Z,53.39
2018-11-26T07:12:02.035Z,54.14
2018-11-26T07:14:31.090Z,54.09
2018-11-26T07:16:59.951Z,53.73
2018-11-26T07:19:28.794Z,53.84
2018-11-26T07:21:57.866Z,53.61
2018-11-26T07:24:26.778Z,53.61
2018-11-26T07:26:55.645Z,54.42
2018-11-26T07:29:24.525Z,54.21
2018-11-26T07:31:53.495Z,54.19
2018-11-26T07:34:22.350Z,53.45
2018-11-26T07:36:51.216Z,54.19
2018-11-26T07:39:20.145Z,54.21
2018-11-26T07:41:48.986Z,53.61
2018-11-26T07:44:17.819Z,54.28
2018-11-26T07:46:46.691Z,53.59
2018-11-26T07:49:15.570Z,54.43
2018-11-26T07:51:44.588Z,54.19
2018-11-26T07:54:13.483Z,53.84
2018-11-26T07:56:42.372Z,53.75
2018-11-26T07:59:11.267Z,53.59
2018-11-26T08:01:40.123Z,54.47
2018-11-26T08:04:09.089Z,54.28
2018-11-26T08:06:37.980Z,54.43
2018-11-26T08:09:08.795Z,54.70
2018-11-26T08:11:37.783Z,54.44
2018-11-26T08:14:07.267Z,54.59
2018-11-26T08:16:36.171Z,53.95
2018-11-26T08:19:05.352Z,54.56
2018-11-26T08:21:34.294Z,54.67
2018-11-26T08:24:03.134Z,54.05
2018-11-26T08:26:32.047Z,54.93
2018-11-26T08:29:00.920Z,53.94
2018-11-26T08:31:29.810Z,54.34
2018-11-26T08:33:58.767Z,54.66
2018-11-26T08:36:32.814Z,53.94
2018-11-26T08:39:07.149Z,54.20
2018-11-26T08:41:36.045Z,53.73
2018-11-26T08:44:10.664Z,54.41
2018-11-26T08:46:44.669Z,54.34
2018-11-26T08:49:17.961Z,54.50
2018-11-26T08:51:47.068Z,54.04
2018-11-26T08:54:15.947Z,53.95
2018-11-26T08:56:44.859Z,54.36
2018-11-26T08:59:13.778Z,54.35
2018-11-26T09:01:44.251Z,53.60
2018-11-26T09:06:21.560Z,53.11
2018-11-26T09:08:50.455Z,52.98
2018-11-26T09:11:19.362Z,53.11
2018-11-26T09:13:48.942Z,52.60
2018-11-26T09:16:20.662Z,52.46
2018-11-26T09:18:49.799Z,52.86
2018-11-26T09:21:18.793Z,52.57
2018-11-26T09:23:47.627Z,53.60
2018-11-26T09:26:16.565Z,53.54
2018-11-26T09:28:45.616Z,52.54
2018-11-26T09:31:14.455Z,53.09
2018-11-26T09:33:43.350Z,52.59
2018-11-26T09:36:12.239Z,53.19
2018-11-26T09:38:41.130Z,53.27
2018-11-26T09:41:10.119Z,53.22
2018-11-26T09:43:39.051Z,52.82
2018-11-26T09:46:07.910Z,53.34
2018-11-26T09:48:36.791Z,53.42
2018-11-26T09:51:06.098Z,53.25
2018-11-26T09:53:52.919Z,54.32
2018-11-26T09:56:21.846Z,53.17
2018-11-26T09:58:50.784Z,53.06
2018-11-26T10:01:19.600Z,52.38
2018-11-26T10:03:48.484Z,52.58
2018-11-26T10:06:17.369Z,52.84
2018-11-26T10:08:46.459Z,53.47
2018-11-26T10:11:15.347Z,52.93
2018-11-26T10:13:56.662Z,52.57
2018-11-26T10:16:27.874Z,52.51
2018-11-26T10:18:56.921Z,52.34
2018-11-26T10:21:25.862Z,52.86
2018-11-26T10:23:55.064Z,53.12
2018-11-26T10:26:24.263Z,52.42
2018-11-26T10:28:53.531Z,52.75
2018-11-26T10:31:22.758Z,53.22
2018-11-26T10:33:51.804Z,52.51
2018-11-26T10:36:20.877Z,52.46
2018-11-26T10:38:49.918Z,53.36
2018-11-26T10:41:18.837Z,53.63
2018-11-26T10:43:47.748Z,53.61
2018-11-26T10:46:16.691Z,53.13
2018-11-26T10:48:45.560Z,52.86
2018-11-26T10:51:14.409Z,52.89
2018-11-26T10:53:43.288Z,52.93
2018-11-26T10:56:12.141Z,54.12
2018-11-26T10:58:40.986Z,52.79
2018-11-26T11:01:15.207Z,53.53
2018-11-26T11:03:44.098Z,53.48
2018-11-26T11:06:13.019Z,52.76
2018-11-26T11:08:41.867Z,53.63
2018-11-26T11:11:10.716Z,52.54
2018-11-26T11:13:40.672Z,53.15
2018-11-26T11:16:08.824Z,52.38
2018-11-26T11:18:37.688Z,52.79
2018-11-26T11:21:07.082Z,53.20
2018-11-26T11:23:35.925Z,52.74
2018-11-26T11:26:05.235Z,53.25
2018-11-26T11:28:34.207Z,52.91
2018-11-26T11:31:03.046Z,52.84
2018-11-26T11:33:32.350Z,53.04
2018-11-26T11:36:01.710Z,52.51
2018-11-26T11:38:30.612Z,53.15
2018-11-26T11:40:59.486Z,53.07
2018-11-26T11:43:28.380Z,53.94
2018-11-26T11:45:57.259Z,53.13
2018-11-26T11:48:26.283Z,52.88
2018-11-26T11:50:55.158Z,53.84
2018-11-26T11:53:24.085Z,52.95
2018-11-26T11:55:53.068Z,53.90
2018-11-26T11:58:21.987Z,52.91
2018-11-26T12:00:50.909Z,53.32
2018-11-26T12:03:20.734Z,53.69
2018-11-26T12:05:49.599Z,53.86
2018-11-26T12:08:18.830Z,53.23
2018-11-26T12:10:48.040Z,53.57
2018-11-26T12:13:16.958Z,52.75
2018-11-26T12:15:48.684Z,53.68
2018-11-26T12:18:17.957Z,53.95
2018-11-26T12:20:46.876Z,52.92
2018-11-26T12:23:15.876Z,52.83
2018-11-26T12:25:44.752Z,53.34
2018-11-26T12:28:13.722Z,52.48
2018-11-26T12:30:44.597Z,53.44
2018-11-26T12:33:13.928Z,52.62
2018-11-26T12:35:42.812Z,52.71
2018-11-26T12:38:11.672Z,53.55
2018-11-26T12:40:40.551Z,53.45
2018-11-26T12:43:09.549Z,52.73
2018-11-26T12:45:38.478Z,53.44
2018-11-26T12:48:07.755Z,53.12
2018-11-26T12:50:36.638Z,53.49
2018-11-26T12:53:05.725Z,52.85
2018-11-26T12:55:36.334Z,53.29
2018-11-26T12:58:05.979Z,53.43
2018-11-26T13:00:35.487Z,53.11
2018-11-26T13:03:08.290Z,52.94
2018-11-26T13:05:37.316Z,53.65
2018-11-26T13:08:06.583Z,52.56
2018-11-26T13:10:35.452Z,52.93
2018-11-26T13:13:04.346Z,53.74
2018-11-26T13:15:33.439Z,52.93
2018-11-26T13:18:02.426Z,52.98
2018-11-26T13:20:31.664Z,54.09
2018-11-26T13:23:00.716Z,53.88
2018-11-26T13:25:33.821Z,53.17
2018-11-26T13:28:03.715Z,53.96
2018-11-26T13:30:36.292Z,53.85
2018-11-26T13:33:08.162Z,53.95
2018-11-26T13:35:37.195Z,53.93
2018-11-26T13:38:07.332Z,53.24
2018-11-26T13:40:36.185Z,53.43
2018-11-26T13:43:07.953Z,53.35
2018-11-26T13:45:38.453Z,53.91
2018-11-26T13:48:09.316Z,53.91
2018-11-26T13:50:40.054Z,53.17
2018-11-26T13:56:22.504Z,53.14
2018-11-26T13:58:51.350Z,53.80
2018-11-26T14:01:20.216Z,53.90
2018-11-26T14:03:49.084Z,53.01
2018-11-26T14:06:18.304Z,52.88
2018-11-26T14:08:47.208Z,53.63
2018-11-26T14:11:16.084Z,53.77
2018-11-26T14:13:44.953Z,53.95
2018-11-26T14:16:13.845Z,53.90
2018-11-26T14:18:42.736Z,53.48
2018-11-26T14:21:11.605Z,52.97
2018-11-26T14:23:40.472Z,53.92
2018-11-26T14:26:09.360Z,53.94
2018-11-26T14:28:38.238Z,53.48
2018-11-26T14:31:07.104Z,52.99
2018-11-26T14:33:36.026Z,53.11
2018-11-26T14:36:04.880Z,53.56
2018-11-26T14:38:33.731Z,53.50
2018-11-26T14:41:02.707Z,53.24
2018-11-26T14:43:31.592Z,54.11
2018-11-26T14:46:00.523Z,53.19
2018-11-26T14:48:29.440Z,53.17
2018-11-26T14:50:58.340Z,53.01
2018-11-26T14:53:27.279Z,53.85
2018-11-26T14:55:56.345Z,53.75
2018-11-26T14:58:25.243Z,53.99
2018-11-26T15:00:54.116Z,52.95
2018-11-26T15:03:23.996Z,53.32
2018-11-26T15:05:52.927Z,52.85
2018-11-26T15:08:21.834Z,53.33
2018-11-26T15:10:50.792Z,53.15
2018-11-26T15:13:19.657Z,53.03
2018-11-26T15:15:48.609Z,53.44
2018-11-26T15:18:17.636Z,53.84
2018-11-26T15:20:46.576Z,53.92
2018-11-26T15:23:15.495Z,53.28
2018-11-26T15:25:44.417Z,53.26
2018-11-26T15:28:14.085Z,53.67
2018-11-26T15:30:42.988Z,54.01
2018-11-26T15:33:11.882Z,53.86
2018-11-26T15:35:41.069Z,53.55
2018-11-26T15:38:10.071Z,53.37
2018-11-26T15:40:39.132Z,54.37
2018-11-26T15:43:08.439Z,53.43
2018-11-26T15:45:37.736Z,54.06
2018-11-26T15:48:09.739Z,53.71
2018-11-26T15:50:38.810Z,54.06
2018-11-26T15:53:08.505Z,53.39
2018-11-26T15:55:37.616Z,54.40
2018-11-26T15:58:07.929Z,54.11
2018-11-26T16:00:36.855Z,53.50
2018-11-26T16:03:06.612Z,54.36
2018-11-26T16:05:36.074Z,54.20
2018-11-26T16:08:08.019Z,53.51
2018-11-26T16:10:37.219Z,53.53
2018-11-26T16:13:07.439Z,53.67
2018-11-26T16:15:38.807Z,53.58
2018-11-26T16:18:10.070Z,54.22
2018-11-26T16:20:39.136Z,53.43
2018-11-26T16:23:09.249Z,54.12
2018-11-26T16:25:40.907Z,53.75
2018-11-26T16:28:10.607Z,53.75
2018-11-26T16:30:39.595Z,53.32
2018-11-26T16:33:08.945Z,52.93
2018-11-26T16:35:37.847Z,53.20
2018-11-26T16:38:07.732Z,53.13
2018-11-26T16:40:36.584Z,54.26
2018-11-26T16:43:06.433Z,53.13
2018-11-26T16:45:35.307Z,54.04
2018-11-26T16:48:04.159Z,53.99
2018-11-26T16:50:34.222Z,53.46
2018-11-26T16:53:03.124Z,54.01
2018-11-26T16:55:32.406Z,53.29
2018-11-26T16:58:01.753Z,54.37
2018-11-26T17:00:31.884Z,53.44
2018-11-26T17:03:02.624Z,53.25
2018-11-26T17:05:33.951Z,53.69
2018-11-26T17:08:02.833Z,54.03
2018-11-26T17:10:33.323Z,54.95
2018-11-26T17:13:02.232Z,54.21
2018-11-26T17:15:31.619Z,54.51
2018-11-26T17:18:00.513Z,54.43
2018-11-26T17:20:29.607Z,53.76
2018-11-26T17:22:58.476Z,53.98
2018-11-26T17:25:27.595Z,54.95
2018-11-26T17:27:56.476Z,54.43
2018-11-26T17:30:26.878Z,54.45
2018-11-26T17:32:57.822Z,54.91
2018-11-26T17:35:26.943Z,54.28
2018-11-26T17:37:56.074Z,53.78
2018-11-26T17:40:25.787Z,54.10
2018-11-26T17:42:55.166Z,55.40
2018-11-26T17:45:24.934Z,54.76
2018-11-26T17:47:55.590Z,54.69
2018-11-26T17:50:29.615Z,54.75
2018-11-26T17:52:59.004Z,54.60
2018-11-26T17:55:28.242Z,54.15
2018-11-26T17:57:57.113Z,54.57
2018-11-26T18:00:34.279Z,55.12
2018-11-26T18:03:03.260Z,55.29
2018-11-26T18:05:32.384Z,54.61
2018-11-26T18:08:04.473Z,54.60
2018-11-26T18:10:33.792Z,54.70
2018-11-26T18:13:02.719Z,55.15
2018-11-26T18:15:31.804Z,55.16
2018-11-26T18:18:00.695Z,55.05
2018-11-26T18:20:29.562Z,55.15
2018-11-26T18:22:58.455Z,53.95
2018-11-26T18:25:27.680Z,54.09
2018-11-26T18:28:12.508Z,54.42
2018-11-26T18:30:47.274Z,54.31
2018-11-26T18:33:16.493Z,54.71
2018-11-26T18:35:45.835Z,54.80
2018-11-26T18:38:14.803Z,53.96
2018-11-26T18:40:44.930Z,54.06
2018-11-26T18:43:15.868Z,54.70
2018-11-26T18:45:57.895Z,53.85
2018-11-26T18:48:26.743Z,54.29
2018-11-26T18:50:55.619Z,54.46
2018-11-26T18:53:24.499Z,54.07
2018-11-26T18:55:53.617Z,54.70
2018-11-26T18:58:22.487Z,53.87
2018-11-26T19:00:53.003Z,54.16
2018-11-26T19:03:22.628Z,54.79
2018-11-26T19:05:52.815Z,54.47
2018-11-26T19:08:21.738Z,54.10
2018-11-26T19:10:53.908Z,54.88
2018-11-26T19:13:24.787Z,54.02
2018-11-26T19:16:00.456Z,54.65
2018-11-26T19:18:29.312Z,54.69
2018-11-26T19:20:58.221Z,54.26
2018-11-26T19:23:27.202Z,54.95
2018-11-26T19:25:56.073Z,54.08
2018-11-26T19:28:24.960Z,54.43
2018-11-26T19:30:53.971Z,54.95
2018-11-26T19:33:22.862Z,54.71
2018-11-26T19:35:51.735Z,54.19
2018-11-26T19:38:20.806Z,54.22
2018-11-26T19:40:49.723Z,54.14
2018-11-26T19:43:18.614Z,53.83
2018-11-26T19:45:47.550Z,54.53
2018-11-26T19:48:16.448Z,54.40
2018-11-26T19:50:45.678Z,54.38
2018-11-26T19:53:14.558Z,54.28
2018-11-26T19:55:43.986Z,53.51
2018-11-26T19:58:13.177Z,54.95
2018-11-26T20:00:42.037Z,54.11
2018-11-26T20:03:18.623Z,55.12
2018-11-26T20:06:20.704Z,54.12
2018-11-26T20:08:51.277Z,54.96
2018-11-26T20:11:20.234Z,53.92
2018-11-26T20:13:49.119Z,53.25
2018-11-26T20:16:20.538Z,53.29
2018-11-26T20:18:49.424Z,54.56
2018-11-26T20:21:18.310Z,54.47
2018-11-26T20:23:47.148Z,54.57
2018-11-26T20:26:16.037Z,54.26
2018-11-26T20:28:44.903Z,54.82
2018-11-26T20:31:13.756Z,54.76
2018-11-26T20:33:42.677Z,54.96
2018-11-26T20:36:12.726Z,53.12
2018-11-26T20:38:41.581Z,54.40
2018-11-26T20:41:11.272Z,54.22
2018-11-26T20:43:40.175Z,53.60
2018-11-26T20:46:09.067Z,54.70
2018-11-26T20:48:37.941Z,53.97
2018-11-26T20:51:07.945Z,54.54
2018-11-26T20:53:36.835Z,53.94
2018-11-26T20:56:16.535Z,54.69
2018-11-26T20:58:45.993Z,54.38
2018-11-26T21:01:14.885Z,53.22
2018-11-26T21:03:43.839Z,55.01
2018-11-26T21:06:12.943Z,54.72
2018-11-26T21:08:41.851Z,54.91
2018-11-26T21:11:10.722Z,55.21
2018-11-26T21:13:39.610Z,55.31
2018-11-26T21:16:08.550Z,54.92
2018-11-26T21:18:37.387Z,55.02
2018-11-26T21:21:07.327Z,56.02
2018-11-26T21:23:36.210Z,55.83
2018-11-26T21:26:07.009Z,54.87
2018-11-26T21:28:35.882Z,55.28
2018-11-26T21:31:05.168Z,55.70
2018-11-26T21:33:34.157Z,55.74
2018-11-26T21:36:03.051Z,54.89
2018-11-26T21:38:32.694Z,55.48
2018-11-26T21:41:01.636Z,54.96
2018-11-26T21:43:30.700Z,54.89
2018-11-26T21:46:00.585Z,55.58
2018-11-26T21:48:29.582Z,54.87
2018-11-26T21:50:58.538Z,55.51
2018-11-26T21:53:27.410Z,54.48
2018-11-26T21:55:56.344Z,55.38
2018-11-26T21:58:25.365Z,55.46
2018-11-26T22:00:56.693Z,55.24
2018-11-26T22:03:30.423Z,55.50
2018-11-26T22:05:54.635Z,55.34
2018-11-26T22:08:23.494Z,55.50
2018-11-26T22:10:52.564Z,54.68
2018-11-26T22:13:21.971Z,54.52
2018-11-26T22:15:50.862Z,55.31
2018-11-26T22:18:19.723Z,55.15
2018-11-26T22:20:48.608Z,54.75
2018-11-26T22:23:17.505Z,54.38
2018-11-26T22:25:46.440Z,55.58
2018-11-26T22:28:15.301Z,54.88
2018-11-26T22:30:44.170Z,54.62
2018-11-26T22:33:13.043Z,54.30
2018-11-26T22:35:41.905Z,53.52
2018-11-26T22:38:10.772Z,54.02
2018-11-26T22:40:39.693Z,55.63
2018-11-26T22:43:08.626Z,54.79
2018-11-26T22:45:37.833Z,54.61
2018-11-26T22:48:12.598Z,55.85
2018-11-26T22:50:43.742Z,54.21
2018-11-26T22:53:13.004Z,53.70
2018-11-26T22:55:42.070Z,53.06
2018-11-26T22:58:12.939Z,54.00
2018-11-26T23:00:46.689Z,54.80
2018-11-26T23:03:16.925Z,54.23
2018-11-26T23:05:46.112Z,54.89
2018-11-26T23:08:15.081Z,55.60
2018-11-26T23:10:44.513Z,54.87
2018-11-26T23:13:13.373Z,55.38
2018-11-26T23:15:42.226Z,55.66
2018-11-26T23:18:11.080Z,52.99
2018-11-26T23:20:40.230Z,55.03
2018-11-26T23:23:09.132Z,55.12
2018-11-26T23:25:38.031Z,54.58
2018-11-26T23:28:06.892Z,54.26
2018-11-26T23:30:35.745Z,54.88
2018-11-26T23:33:05.701Z,55.02
2018-11-26T23:35:34.694Z,55.55
2018-11-26T23:38:04.115Z,54.54
2018-11-26T23:40:34.182Z,53.73
2018-11-26T23:43:02.122Z,55.03
2018-11-26T23:45:31.015Z,55.42
2018-11-26T23:47:59.883Z,55.68
2018-11-26T23:50:28.759Z,54.55
2018-11-26T23:52:57.640Z,53.63
2018-11-26T23:55:26.638Z,54.69
2018-11-26T23:57:55.743Z,55.27
